Time;durP1;ratioP1;P1;durP2;ratioP2;P2;SDS_P1;SDS_P2;PMS_P1;PMS_P2;Temp;Humidity;BMP_temperature;BMP_pressure;BME280_temperature;BME280_humidity;BME280_pressure;Samples;Min_cycle;Max_cycle;Signal;HPM_P1;HPM_P2
2024/03/26 00:00:06;;;;;;;3.30;1.33;;;12.80;83.70;;;;;;4976911;28;20015;-76
2024/03/26 00:02:32;;;;;;;2.20;1.23;;;12.80;83.70;;;;;;4976126;28;20077;-78
2024/03/26 00:04:57;;;;;;;3.03;1.30;;;12.70;83.70;;;;;;4977085;28;20447;-79
2024/03/26 00:07:23;;;;;;;3.15;1.30;;;12.80;83.80;;;;;;4962369;28;20448;-77
2024/03/26 00:09:48;;;;;;;3.33;1.50;;;12.80;83.80;;;;;;4972373;28;20122;-77
2024/03/26 00:12:14;;;;;;;2.88;1.10;;;12.70;83.70;;;;;;4972287;28;20034;-77
2024/03/26 00:14:39;;;;;;;2.47;1.10;;;12.80;83.70;;;;;;4957256;28;20054;-77
2024/03/26 00:17:05;;;;;;;3.15;1.20;;;12.80;83.80;;;;;;4957339;28;20440;-78
2024/03/26 00:19:31;;;;;;;2.67;1.00;;;12.80;83.80;;;;;;4955805;29;20028;-77
2024/03/26 00:21:56;;;;;;;2.38;1.17;;;12.80;83.80;;;;;;4956997;28;20027;-78
2024/03/26 00:24:23;;;;;;;2.80;1.20;;;12.70;83.70;;;;;;4972129;28;20035;-77
2024/03/26 00:26:49;;;;;;;3.38;1.20;;;12.80;83.80;;;;;;4957356;28;20035;-77
2024/03/26 00:29:14;;;;;;;3.00;1.20;;;12.70;83.80;;;;;;4972081;28;20027;-76
2024/03/26 00:31:40;;;;;;;2.95;1.30;;;12.60;83.70;;;;;;4956903;29;20484;-77
2024/03/26 00:34:05;;;;;;;4.22;1.58;;;12.70;83.70;;;;;;4971800;28;20034;-76
2024/03/26 00:36:31;;;;;;;2.25;1.23;;;12.80;83.80;;;;;;4956897;28;20106;-77
2024/03/26 00:38:57;;;;;;;2.80;1.30;;;12.60;83.60;;;;;;4956934;29;20043;-77
2024/03/26 00:41:23;;;;;;;2.88;1.35;;;12.80;83.70;;;;;;4956789;28;20062;-77
2024/03/26 00:43:49;;;;;;;2.35;1.15;;;12.80;83.80;;;;;;4956989;29;20041;-77
2024/03/26 00:46:15;;;;;;;2.88;1.20;;;12.80;83.70;;;;;;4957225;28;20027;-76
2024/03/26 00:48:40;;;;;;;2.92;1.30;;;12.70;83.70;;;;;;4955703;29;20023;-77
2024/03/26 00:51:06;;;;;;;3.08;1.40;;;12.80;83.70;;;;;;4956581;28;20042;-77
2024/03/26 00:53:32;;;;;;;2.47;1.40;;;12.70;83.70;;;;;;4956761;29;20031;-77
2024/03/26 00:55:58;;;;;;;2.40;1.20;;;12.70;83.70;;;;;;4956764;28;20035;-77
2024/03/26 00:58:23;;;;;;;3.45;1.50;;;12.70;83.70;;;;;;4956637;29;20023;-77
2024/03/26 01:00:49;;;;;;;2.08;1.38;;;12.70;83.80;;;;;;4956364;28;20019;-77
2024/03/26 01:03:15;;;;;;;3.15;1.30;;;12.70;83.70;;;;;;4955361;29;20042;-77
2024/03/26 01:05:49;;;;;;;2.45;1.20;;;12.60;83.70;;;;;;4955333;28;20027;-77
2024/03/26 01:08:15;;;;;;;4.10;1.23;;;12.70;83.70;;;;;;4956620;28;20043;-76
2024/03/26 01:10:41;;;;;;;2.50;1.10;;;12.60;83.70;;;;;;4956019;28;20031;-77
2024/03/26 01:13:06;;;;;;;2.28;1.27;;;12.60;83.70;;;;;;4955294;29;20380;-77
2024/03/26 01:15:32;;;;;;;2.42;1.17;;;12.70;84.20;;;;;;4956278;29;20038;-77
2024/03/26 01:17:58;;;;;;;3.70;1.20;;;12.70;83.70;;;;;;4956220;28;20444;-76
2024/03/26 01:20:23;;;;;;;2.35;1.17;;;12.60;83.70;;;;;;4955608;28;20632;-77
2024/03/26 01:22:49;;;;;;;3.30;1.40;;;12.70;83.70;;;;;;4955795;29;20036;-77
2024/03/26 01:25:14;;;;;;;3.10;1.30;;;12.70;83.80;;;;;;4954458;29;20042;-77
2024/03/26 01:27:40;;;;;;;2.95;1.30;;;12.70;83.80;;;;;;4955588;29;20089;-77
2024/03/26 01:30:06;;;;;;;4.03;1.40;;;12.80;83.80;;;;;;4970184;28;20090;-77
2024/03/26 01:32:32;;;;;;;2.50;1.20;;;12.70;83.70;;;;;;4954223;28;20059;-77
2024/03/26 01:34:57;;;;;;;2.17;1.10;;;12.70;83.70;;;;;;4955100;28;20067;-77
2024/03/26 01:37:23;;;;;;;3.53;1.30;;;12.70;83.70;;;;;;4955695;28;20027;-77
2024/03/26 01:39:48;;;;;;;2.97;1.30;;;12.70;83.70;;;;;;4955372;29;20035;-76
2024/03/26 01:42:14;;;;;;;3.30;1.35;;;12.70;83.70;;;;;;4955366;29;20388;-76
2024/03/26 01:44:40;;;;;;;2.95;1.30;;;12.70;83.70;;;;;;4955536;28;20035;-77
2024/03/26 01:47:05;;;;;;;2.15;1.13;;;12.70;83.70;;;;;;4955864;29;20081;-76
2024/03/26 01:49:34;;;;;;;2.97;1.33;;;12.60;83.60;;;;;;4954065;29;20038;-77
2024/03/26 01:52:00;;;;;;;2.45;1.27;;;12.70;83.70;;;;;;4954287;28;20039;-77
2024/03/26 01:54:26;;;;;;;2.20;1.17;;;12.70;83.60;;;;;;4955592;28;20027;-76
2024/03/26 01:56:54;;;;;;;2.92;1.33;;;12.70;83.60;;;;;;4954202;29;20034;-77
2024/03/26 01:59:20;;;;;;;2.65;1.60;;;12.70;83.60;;;;;;4970451;28;20409;-75
2024/03/26 02:01:45;;;;;;;3.15;1.40;;;12.70;83.60;;;;;;4955406;28;20028;-77
2024/03/26 02:04:11;;;;;;;1.60;1.13;;;12.70;83.60;;;;;;4970275;28;20027;-77
2024/03/26 02:06:36;;;;;;;2.35;1.17;;;12.70;83.60;;;;;;4955522;29;20074;-77
2024/03/26 02:09:03;;;;;;;2.88;1.23;;;12.70;83.60;;;;;;4954997;29;20023;-75
2024/03/26 02:11:30;;;;;;;2.47;1.20;;;12.70;83.60;;;;;;4954956;28;20027;-77
2024/03/26 02:13:55;;;;;;;2.80;1.30;;;12.80;83.60;;;;;;4954037;29;20539;-77
2024/03/26 02:16:21;;;;;;;2.70;1.20;;;12.60;83.50;;;;;;4954497;28;20043;-77
2024/03/26 02:18:46;;;;;;;3.58;1.40;;;12.80;83.60;;;;;;4955239;28;20038;-77
2024/03/26 02:21:12;;;;;;;2.83;1.40;;;12.70;83.50;;;;;;4954895;28;20065;-77
2024/03/26 02:23:38;;;;;;;2.78;1.17;;;12.70;83.60;;;;;;4953899;29;20023;-77
2024/03/26 02:26:04;;;;;;;2.40;1.30;;;12.70;83.50;;;;;;4955427;28;20400;-77
2024/03/26 02:28:29;;;;;;;4.15;1.52;;;12.70;83.50;;;;;;4953931;28;20058;-77
2024/03/26 02:30:55;;;;;;;3.17;1.30;;;12.60;83.40;;;;;;4969440;28;20492;-77
2024/03/26 02:33:20;;;;;;;2.45;1.10;;;12.60;83.50;;;;;;4969565;28;20023;-77
2024/03/26 02:35:46;;;;;;;2.83;1.33;;;12.70;83.60;;;;;;4953818;29;20074;-77
2024/03/26 02:38:11;;;;;;;2.13;1.30;;;12.70;83.50;;;;;;4953654;29;20023;-76
2024/03/26 02:40:37;;;;;;;2.30;1.33;;;12.70;83.50;;;;;;4969393;28;20391;-77
2024/03/26 02:43:03;;;;;;;3.03;1.20;;;12.70;83.50;;;;;;4954977;28;20055;-77
2024/03/26 02:45:29;;;;;;;3.10;1.60;;;12.70;83.50;;;;;;4955033;28;20027;-76
2024/03/26 02:51:25;;;;;;;2.70;1.40;;;12.70;83.60;;;;;;4954650;28;20030;-77
2024/03/26 02:53:51;;;;;;;2.63;1.25;;;12.70;83.60;;;;;;4970628;28;20038;-76
2024/03/26 02:56:17;;;;;;;2.25;1.20;;;12.60;83.60;;;;;;4972495;28;20019;-77
2024/03/26 02:58:42;;;;;;;2.97;1.33;;;12.70;83.60;;;;;;4972642;28;20054;-78
2024/03/26 03:01:10;;;;;;;2.78;1.20;;;12.60;83.50;;;;;;4973856;28;20038;-77
2024/03/26 03:03:37;;;;;;;4.07;1.55;;;12.70;83.60;;;;;;4974058;28;20118;-77
2024/03/26 03:06:07;;;;;;;3.13;1.20;;;12.70;83.60;;;;;;4974048;28;20105;-77
2024/03/26 03:08:32;;;;;;;2.50;1.10;;;12.70;83.50;;;;;;4988720;28;20030;-77
2024/03/26 03:10:58;;;;;;;2.67;1.27;;;12.70;83.60;;;;;;4973400;28;20023;-77
2024/03/26 03:13:24;;;;;;;2.42;1.20;;;12.80;83.60;;;;;;4972568;28;20034;-78
2024/03/26 03:15:49;;;;;;;3.05;1.40;;;12.70;83.60;;;;;;4972575;28;20035;-77
2024/03/26 03:18:15;;;;;;;2.22;1.40;;;12.70;83.60;;;;;;4973867;28;20034;-77
2024/03/26 03:20:41;;;;;;;2.35;1.20;;;12.60;83.50;;;;;;4973389;28;20121;-78
2024/03/26 03:23:07;;;;;;;2.58;1.35;;;12.70;83.50;;;;;;4974154;28;20066;-77
2024/03/26 03:25:32;;;;;;;2.47;1.33;;;12.70;83.60;;;;;;4973990;28;20046;-76
2024/03/26 03:27:58;;;;;;;2.80;1.30;;;12.70;83.60;;;;;;4988632;28;20029;-79
2024/03/26 03:30:24;;;;;;;3.83;1.52;;;12.50;83.50;;;;;;4972315;28;20434;-77
2024/03/26 03:32:49;;;;;;;2.83;1.20;;;12.50;83.60;;;;;;4971735;28;20033;-76
2024/03/26 03:35:15;;;;;;;3.35;1.40;;;12.60;83.60;;;;;;4972903;28;20062;-77
2024/03/26 03:37:40;;;;;;;3.25;1.38;;;12.60;83.70;;;;;;4972035;28;20041;-77
2024/03/26 03:40:06;;;;;;;2.33;1.20;;;12.50;83.60;;;;;;4973260;28;20089;-76
2024/03/26 03:42:32;;;;;;;3.28;1.55;;;12.60;83.70;;;;;;4973629;28;20023;-77
2024/03/26 03:44:57;;;;;;;2.10;1.30;;;12.60;83.70;;;;;;4973997;28;20098;-77
2024/03/26 03:47:23;;;;;;;2.55;1.38;;;12.70;83.70;;;;;;4972116;28;20031;-78
2024/03/26 03:49:49;;;;;;;3.08;1.40;;;12.70;83.70;;;;;;4971976;28;20034;-77
2024/03/26 03:52:14;;;;;;;3.92;1.30;;;12.60;83.70;;;;;;4972173;28;20026;-77
2024/03/26 03:54:40;;;;;;;2.75;1.10;;;12.60;83.70;;;;;;4972025;28;20487;-77
2024/03/26 03:57:05;;;;;;;2.45;1.23;;;12.70;83.80;;;;;;4972357;28;20033;-77
2024/03/26 03:59:31;;;;;;;2.92;1.42;;;12.50;83.70;;;;;;4974916;28;20158;-77
2024/03/26 04:01:56;;;;;;;2.58;1.33;;;12.70;83.80;;;;;;4975565;28;20070;-76
2024/03/26 04:04:22;;;;;;;1.83;1.20;;;12.60;83.70;;;;;;4975558;28;20031;-77
2024/03/26 04:06:47;;;;;;;1.70;1.20;;;12.70;83.80;;;;;;4975719;28;20031;-77
2024/03/26 04:09:14;;;;;;;2.80;1.50;;;12.60;83.80;;;;;;4976947;28;20027;-77
2024/03/26 04:11:39;;;;;;;3.20;1.30;;;12.60;83.70;;;;;;4976642;28;20030;-77
2024/03/26 04:14:05;;;;;;;2.25;1.25;;;12.60;83.80;;;;;;4976309;28;20026;-76
2024/03/26 04:16:31;;;;;;;2.97;1.20;;;12.60;83.80;;;;;;4976727;28;20029;-76
2024/03/26 04:18:56;;;;;;;2.30;1.38;;;12.70;83.80;;;;;;4975437;28;20062;-76
2024/03/26 04:21:22;;;;;;;2.95;1.30;;;12.60;83.80;;;;;;4976427;28;20388;-76
2024/03/26 04:23:47;;;;;;;3.00;1.50;;;12.60;83.80;;;;;;4975619;28;20154;-77
2024/03/26 04:26:13;;;;;;;2.65;1.20;;;12.60;83.80;;;;;;4975320;28;20089;-77
2024/03/26 04:28:39;;;;;;;2.47;1.38;;;12.70;83.90;;;;;;4976745;28;20062;-76
2024/03/26 04:31:04;;;;;;;2.75;1.30;;;12.60;83.80;;;;;;4974909;28;20038;-77
2024/03/26 04:33:30;;;;;;;2.20;1.30;;;12.70;83.90;;;;;;4975199;28;20034;-78
2024/03/26 04:35:56;;;;;;;2.30;1.25;;;12.70;83.80;;;;;;4975132;28;20023;-76
2024/03/26 04:38:22;;;;;;;2.03;1.20;;;12.70;83.80;;;;;;4976403;28;20023;-77
2024/03/26 04:40:47;;;;;;;2.42;1.50;;;12.70;83.80;;;;;;4976223;28;20026;-77
2024/03/26 04:43:13;;;;;;;1.88;1.30;;;12.70;83.80;;;;;;4976146;28;20026;-77
2024/03/26 04:45:39;;;;;;;3.70;1.30;;;12.70;83.80;;;;;;4975978;28;20085;-77
2024/03/26 04:48:05;;;;;;;2.58;1.30;;;12.50;83.70;;;;;;4974687;28;20755;-77
2024/03/26 04:50:31;;;;;;;3.13;1.45;;;12.60;83.70;;;;;;4975816;28;20037;-78
2024/03/26 04:52:57;;;;;;;2.75;1.30;;;12.70;83.80;;;;;;4976233;28;20109;-75
2024/03/26 04:55:22;;;;;;;2.65;1.40;;;12.60;83.70;;;;;;4976267;28;20030;-77
2024/03/26 04:57:48;;;;;;;2.90;1.35;;;12.60;83.70;;;;;;4974746;28;20026;-77
2024/03/26 05:00:15;;;;;;;3.67;1.30;;;12.50;83.60;;;;;;4972717;28;20031;-77
2024/03/26 05:02:41;;;;;;;3.00;1.30;;;12.60;83.70;;;;;;4974703;28;20484;-77
2024/03/26 05:05:07;;;;;;;2.83;1.40;;;12.60;83.70;;;;;;4974537;28;20035;-77
2024/03/26 05:07:33;;;;;;;2.60;1.30;;;12.60;83.70;;;;;;4975951;28;20042;-77
2024/03/26 05:09:59;;;;;;;3.20;1.50;;;12.50;83.60;;;;;;4972423;28;20035;-77
2024/03/26 05:12:25;;;;;;;4.80;1.42;;;12.50;83.60;;;;;;4972204;28;20512;-78
2024/03/26 05:14:50;;;;;;;2.08;1.20;;;12.60;83.70;;;;;;4969723;28;20034;-78
2024/03/26 05:17:16;;;;;;;2.92;1.50;;;12.60;83.60;;;;;;4970247;28;20832;-79
2024/03/26 05:19:42;;;;;;;3.15;1.50;;;12.60;83.60;;;;;;4971371;28;20022;-78
2024/03/26 05:22:10;;;;;;;2.38;1.30;;;12.60;83.60;;;;;;4972936;28;20042;-79
2024/03/26 05:24:38;;;;;;;2.22;1.40;;;12.50;83.50;;;;;;4952939;28;20051;-79
2024/03/26 05:27:08;;;;;;;3.05;1.20;;;12.60;83.50;;;;;;4963403;28;20550;-79
2024/03/26 05:29:34;;;;;;;3.42;1.40;;;12.60;83.50;;;;;;4969941;28;20034;-77
2024/03/26 05:31:59;;;;;;;3.65;1.40;;;12.60;83.50;;;;;;4971929;28;20031;-78
2024/03/26 05:34:25;;;;;;;1.90;1.20;;;12.60;83.50;;;;;;4969682;28;20492;-77
2024/03/26 05:36:51;;;;;;;2.10;1.20;;;12.60;83.50;;;;;;4969688;28;20078;-77
2024/03/26 05:39:16;;;;;;;3.22;1.33;;;12.60;83.40;;;;;;4971209;28;20433;-77
2024/03/26 05:41:42;;;;;;;2.67;1.30;;;12.60;83.40;;;;;;4972680;28;20535;-78
2024/03/26 05:44:08;;;;;;;2.40;1.30;;;12.60;83.40;;;;;;4971490;28;20030;-77
2024/03/26 05:46:34;;;;;;;1.52;1.20;;;12.60;83.40;;;;;;4972269;28;20027;-76
2024/03/26 05:49:01;;;;;;;1.80;1.40;;;12.60;83.40;;;;;;4971533;28;20124;-77
2024/03/26 05:51:27;;;;;;;2.10;1.23;;;12.60;83.40;;;;;;4969955;28;20035;-77
2024/03/26 05:53:53;;;;;;;1.92;1.10;;;12.60;83.50;;;;;;4971428;28;20049;-78
2024/03/26 05:56:19;;;;;;;3.08;1.40;;;12.60;83.40;;;;;;4970374;28;20027;-76
2024/03/26 05:58:45;;;;;;;2.70;1.30;;;12.50;83.40;;;;;;4970429;28;20117;-76
2024/03/26 06:01:11;;;;;;;3.75;1.50;;;12.60;83.40;;;;;;4969912;28;20121;-77
2024/03/26 06:03:37;;;;;;;2.92;1.23;;;12.60;83.40;;;;;;4971549;28;20027;-77
2024/03/26 06:06:03;;;;;;;2.35;1.30;;;12.60;83.50;;;;;;4972370;28;20019;-78
2024/03/26 06:08:28;;;;;;;2.28;1.20;;;12.60;83.40;;;;;;4969206;28;20487;-77
2024/03/26 06:10:54;;;;;;;2.30;1.10;;;12.60;83.40;;;;;;4970662;28;20034;-79
2024/03/26 06:13:19;;;;;;;3.20;1.45;;;12.70;83.40;;;;;;4977671;28;20034;-78
2024/03/26 06:15:45;;;;;;;2.35;1.20;;;12.60;83.30;;;;;;4969342;28;20085;-77
2024/03/26 06:18:11;;;;;;;2.85;1.30;;;12.70;83.50;;;;;;4969983;28;20334;-80
2024/03/26 06:20:36;;;;;;;2.92;1.40;;;12.60;83.20;;;;;;4969792;28;20034;-77
2024/03/26 06:23:02;;;;;;;2.42;1.30;;;12.60;83.20;;;;;;4969721;28;20018;-79
2024/03/26 06:25:29;;;;;;;2.97;1.40;;;12.60;83.10;;;;;;4969462;28;20030;-78
2024/03/26 06:27:54;;;;;;;3.05;1.40;;;12.60;83.20;;;;;;4969095;28;20383;-77
2024/03/26 06:30:20;;;;;;;2.33;1.40;;;12.60;83.10;;;;;;4969193;28;20619;-77
2024/03/26 06:32:48;;;;;;;2.15;1.30;;;12.60;83.10;;;;;;4970192;28;20019;-79
2024/03/26 06:35:14;;;;;;;3.03;1.40;;;12.60;83.10;;;;;;4969960;28;20096;-77
2024/03/26 06:37:39;;;;;;;2.35;1.33;;;12.60;83.10;;;;;;4970807;28;20031;-78
2024/03/26 06:40:06;;;;;;;3.38;1.40;;;12.60;82.80;;;;;;4969111;28;20049;-78
2024/03/26 06:42:31;;;;;;;2.50;1.33;;;12.60;82.90;;;;;;4969698;28;20035;-77
2024/03/26 06:44:57;;;;;;;2.63;1.33;;;12.60;82.70;;;;;;4970939;28;20037;-78
2024/03/26 06:47:22;;;;;;;2.85;1.30;;;12.60;82.50;;;;;;4985906;28;20031;-78
2024/03/26 06:49:48;;;;;;;2.80;1.38;;;12.60;82.40;;;;;;4970730;28;20459;-77
2024/03/26 06:52:13;;;;;;;6.47;1.55;;;12.60;82.50;;;;;;4969373;28;20063;-77
2024/03/26 06:54:41;;;;;;;5.28;1.60;;;12.70;82.50;;;;;;4969442;28;20035;-78
2024/03/26 06:57:07;;;;;;;2.33;1.30;;;12.60;82.50;;;;;;4969081;28;20023;-77
2024/03/26 06:59:32;;;;;;;3.28;1.50;;;12.70;82.20;;;;;;4971250;28;20107;-80
2024/03/26 07:02:03;;;;;;;2.72;1.40;;;12.70;82.40;;;;;;4971113;28;20455;-79
2024/03/26 07:04:32;;;;;;;2.30;1.30;;;12.70;82.40;;;;;;4969623;28;20050;-77
2024/03/26 07:06:58;;;;;;;2.10;1.17;;;12.60;82.30;;;;;;4970795;28;20270;-79
2024/03/26 07:09:23;;;;;;;3.83;1.20;;;12.70;82.30;;;;;;4969739;28;20035;-78
2024/03/26 07:11:49;;;;;;;2.42;1.20;;;12.70;82.40;;;;;;4969975;28;20034;-77
2024/03/26 07:14:18;;;;;;;3.85;1.42;;;12.70;82.30;;;;;;4971405;28;20098;-78
2024/03/26 07:16:43;;;;;;;2.60;1.40;;;12.80;82.00;;;;;;4970315;28;20022;-77
2024/03/26 07:19:09;;;;;;;4.15;1.38;;;12.80;82.30;;;;;;4971627;28;20423;-77
2024/03/26 07:21:37;;;;;;;1.98;1.15;;;12.90;82.20;;;;;;4971563;28;20107;-78
2024/03/26 07:24:03;;;;;;;2.08;1.40;;;12.90;82.20;;;;;;4973724;28;20030;-78
2024/03/26 07:26:29;;;;;;;5.00;1.40;;;12.90;82.00;;;;;;4972119;28;20778;-77
2024/03/26 07:28:55;;;;;;;3.35;1.20;;;12.90;82.00;;;;;;4972320;28;20077;-77
2024/03/26 07:31:21;;;;;;;4.85;1.50;;;12.90;82.10;;;;;;4971767;28;20539;-77
2024/03/26 07:33:47;;;;;;;3.45;1.40;;;12.90;82.10;;;;;;4975033;28;20034;-77
2024/03/26 07:36:12;;;;;;;2.58;1.30;;;13.00;82.20;;;;;;4975670;28;20026;-78
2024/03/26 07:38:38;;;;;;;2.25;1.20;;;12.80;82.00;;;;;;4976641;28;20539;-78
2024/03/26 07:41:04;;;;;;;3.00;1.40;;;12.90;82.00;;;;;;4975444;28;20026;-78
2024/03/26 07:43:29;;;;;;;2.22;1.40;;;13.00;82.00;;;;;;4975720;28;20078;-77
2024/03/26 07:45:55;;;;;;;2.97;1.38;;;12.90;82.00;;;;;;4975130;28;20031;-78
2024/03/26 07:48:20;;;;;;;3.03;1.30;;;13.00;81.80;;;;;;4975213;28;20113;-77
2024/03/26 07:50:46;;;;;;;2.95;1.30;;;13.00;81.70;;;;;;4976115;28;20035;-78
2024/03/26 07:53:12;;;;;;;2.80;1.40;;;13.10;81.70;;;;;;4976655;28;20034;-75
2024/03/26 07:55:37;;;;;;;2.97;1.27;;;13.10;81.80;;;;;;4991221;28;20023;-78
2024/03/26 07:58:04;;;;;;;3.50;1.60;;;12.90;81.70;;;;;;4976544;28;20027;-76
2024/03/26 08:00:29;;;;;;;2.88;1.40;;;13.10;81.80;;;;;;4991030;28;20407;-77
2024/03/26 08:02:55;;;;;;;3.08;1.60;;;13.10;81.90;;;;;;4976312;28;20022;-77
2024/03/26 08:05:20;;;;;;;2.20;1.00;;;13.10;81.80;;;;;;4976903;28;20448;-78
2024/03/26 08:07:46;;;;;;;2.15;1.08;;;13.10;81.80;;;;;;4975353;28;20086;-76
2024/03/26 08:10:12;;;;;;;2.58;1.25;;;13.10;81.80;;;;;;4976447;28;20042;-77
2024/03/26 08:12:37;;;;;;;2.13;1.23;;;13.10;81.90;;;;;;4976676;28;20027;-78
2024/03/26 08:15:03;;;;;;;3.95;1.45;;;13.10;81.80;;;;;;4991409;28;20019;-78
2024/03/26 08:17:31;;;;;;;2.08;1.30;;;13.10;81.70;;;;;;4975307;28;20051;-77
2024/03/26 08:19:56;;;;;;;3.05;1.55;;;13.10;81.60;;;;;;4976057;28;20033;-78
2024/03/26 08:22:22;;;;;;;2.47;1.17;;;13.20;81.60;;;;;;4974608;28;20121;-77
2024/03/26 08:24:47;;;;;;;2.97;1.35;;;13.20;81.60;;;;;;4974860;28;20033;-78
2024/03/26 08:27:13;;;;;;;3.95;1.15;;;13.10;81.50;;;;;;4976668;28;20111;-77
2024/03/26 08:29:39;;;;;;;3.08;1.25;;;13.30;81.70;;;;;;4975837;28;20030;-77
2024/03/26 08:32:04;;;;;;;2.63;1.30;;;13.30;81.70;;;;;;4974788;28;20037;-78
2024/03/26 08:34:30;;;;;;;3.03;1.30;;;13.20;81.60;;;;;;4976297;28;20023;-77
2024/03/26 08:36:56;;;;;;;3.05;1.60;;;13.20;81.60;;;;;;4976078;28;20143;-78
2024/03/26 08:39:21;;;;;;;2.53;1.20;;;13.20;81.40;;;;;;4974587;28;20026;-78
2024/03/26 08:41:47;;;;;;;2.75;1.30;;;13.20;81.40;;;;;;4974670;28;20029;-76
2024/03/26 08:44:13;;;;;;;2.92;1.27;;;13.20;81.60;;;;;;4975209;28;20104;-76
2024/03/26 08:46:38;;;;;;;2.65;1.40;;;13.20;81.80;;;;;;4975222;28;20034;-77
2024/03/26 08:49:04;;;;;;;1.77;1.27;;;13.20;81.80;;;;;;4975878;28;20483;-78
2024/03/26 08:51:29;;;;;;;2.15;1.30;;;13.20;82.00;;;;;;4975385;28;20031;-78
2024/03/26 08:53:56;;;;;;;2.22;1.33;;;13.20;82.20;;;;;;4975387;28;20051;-77
2024/03/26 08:56:21;;;;;;;2.65;1.40;;;13.20;82.20;;;;;;4975508;28;20023;-78
2024/03/26 08:58:51;;;;;;;2.65;1.40;;;13.10;82.20;;;;;;4975459;28;20031;-76
2024/03/26 09:01:16;;;;;;;2.95;1.25;;;13.10;82.30;;;;;;4975298;28;20073;-78
2024/03/26 09:03:42;;;;;;;2.70;1.40;;;13.10;82.40;;;;;;4974510;28;20042;-78
2024/03/26 09:06:08;;;;;;;2.72;1.40;;;13.00;82.30;;;;;;4974175;28;20085;-76
2024/03/26 09:08:34;;;;;;;2.55;1.40;;;13.10;82.50;;;;;;4974175;28;20062;-78
2024/03/26 09:10:59;;;;;;;2.63;1.20;;;13.20;82.50;;;;;;4975249;28;20074;-78
2024/03/26 09:13:25;;;;;;;1.88;1.10;;;13.00;82.30;;;;;;4975573;28;20043;-77
2024/03/26 09:15:51;;;;;;;2.50;1.20;;;13.10;82.30;;;;;;4975321;28;20579;-77
2024/03/26 09:18:16;;;;;;;2.80;1.30;;;13.20;82.20;;;;;;4975521;28;20035;-78
2024/03/26 09:20:42;;;;;;;2.85;1.33;;;13.20;82.30;;;;;;4973127;28;20118;-77
2024/03/26 09:23:07;;;;;;;2.53;1.20;;;13.20;82.30;;;;;;4973804;28;20479;-77
2024/03/26 09:25:33;;;;;;;3.88;1.60;;;13.10;82.40;;;;;;4990090;28;20109;-77
2024/03/26 09:27:58;;;;;;;2.35;1.25;;;13.20;82.50;;;;;;4973990;28;20034;-77
2024/03/26 09:30:27;;;;;;;1.90;1.30;;;13.10;82.40;;;;;;4974579;28;20030;-77
2024/03/26 09:32:53;;;;;;;1.83;1.10;;;13.00;82.40;;;;;;4990128;28;20137;-77
2024/03/26 09:35:19;;;;;;;2.80;1.33;;;13.10;82.50;;;;;;4972354;28;20051;-77
2024/03/26 09:37:45;;;;;;;2.47;1.30;;;13.10;82.50;;;;;;4954165;28;20110;-76
2024/03/26 09:40:12;;;;;;;2.22;1.38;;;13.10;82.50;;;;;;4954782;28;20158;-78
2024/03/26 09:42:40;;;;;;;3.17;1.40;;;13.10;82.50;;;;;;4954960;28;20031;-77
2024/03/26 09:45:08;;;;;;;2.78;1.40;;;13.10;82.60;;;;;;4955130;28;20028;-78
2024/03/26 09:47:34;;;;;;;2.03;1.27;;;13.10;82.60;;;;;;4954303;28;20042;-78
2024/03/26 09:50:04;;;;;;;2.55;1.40;;;13.10;82.50;;;;;;4953755;29;20031;-78
2024/03/26 09:52:41;;;;;;;2.42;1.20;;;13.10;82.50;;;;;;4954836;28;20031;-78
2024/03/26 09:55:09;;;;;;;2.45;1.60;;;13.10;82.40;;;;;;4955347;28;20042;-78
2024/03/26 09:57:35;;;;;;;3.03;1.33;;;13.10;82.30;;;;;;4953807;28;20035;-78
2024/03/26 10:00:00;;;;;;;2.35;1.27;;;13.20;82.30;;;;;;4955094;29;20082;-78
2024/03/26 10:02:27;;;;;;;2.53;1.20;;;13.10;82.20;;;;;;4955318;28;20031;-78
2024/03/26 10:04:52;;;;;;;1.90;1.20;;;13.10;82.20;;;;;;4955134;28;20034;-78
2024/03/26 10:07:18;;;;;;;2.53;1.27;;;13.00;82.40;;;;;;4955122;29;20122;-78
2024/03/26 10:09:43;;;;;;;2.58;1.30;;;13.10;82.50;;;;;;4953660;29;20182;-77
2024/03/26 10:12:10;;;;;;;2.67;1.48;;;13.10;82.50;;;;;;4954880;29;20031;-77
2024/03/26 10:14:36;;;;;;;3.03;1.50;;;13.00;82.40;;;;;;4954808;28;20027;-76
2024/03/26 10:17:02;;;;;;;2.88;1.30;;;13.10;82.60;;;;;;4953579;28;20373;-78
2024/03/26 10:19:27;;;;;;;2.60;1.50;;;13.00;82.50;;;;;;4953391;29;20078;-77
2024/03/26 10:21:53;;;;;;;2.45;1.30;;;13.00;82.50;;;;;;4953409;28;20027;-77
2024/03/26 10:24:19;;;;;;;2.88;1.42;;;13.10;82.50;;;;;;4953742;28;20023;-78
2024/03/26 10:26:45;;;;;;;2.03;1.10;;;13.00;82.40;;;;;;4955003;28;20042;-77
2024/03/26 10:29:11;;;;;;;2.17;1.23;;;13.10;82.50;;;;;;4953594;28;20034;-77
2024/03/26 10:31:38;;;;;;;2.30;1.38;;;13.10;82.50;;;;;;4953126;29;20071;-76
2024/03/26 10:34:04;;;;;;;1.92;1.23;;;13.10;83.00;;;;;;4953329;28;20034;-77
2024/03/26 10:36:33;;;;;;;1.50;1.10;;;13.10;82.40;;;;;;4954428;28;20039;-76
2024/03/26 10:38:59;;;;;;;2.50;1.40;;;13.10;82.40;;;;;;4953337;29;20035;-77
2024/03/26 10:41:35;;;;;;;3.13;1.40;;;13.10;82.50;;;;;;4954415;28;20031;-77
2024/03/26 10:44:02;;;;;;;2.15;1.30;;;13.10;82.50;;;;;;4953323;29;20063;-78
2024/03/26 10:46:33;;;;;;;3.17;1.25;;;13.10;82.50;;;;;;4954202;28;20047;-78
2024/03/26 10:49:00;;;;;;;1.77;1.25;;;13.10;82.60;;;;;;4954416;28;20027;-77
2024/03/26 10:51:27;;;;;;;3.10;1.23;;;13.10;82.60;;;;;;4954272;28;20432;-77
2024/03/26 10:53:56;;;;;;;1.92;1.30;;;13.20;82.60;;;;;;4953128;28;20058;-77
2024/03/26 10:56:22;;;;;;;2.17;1.25;;;13.10;82.70;;;;;;4954773;28;20098;-77
2024/03/26 10:58:47;;;;;;;2.15;1.20;;;13.20;82.70;;;;;;4954692;28;20058;-78
2024/03/26 11:01:14;;;;;;;2.47;1.38;;;13.10;82.70;;;;;;4953023;28;20028;-77
2024/03/26 11:03:39;;;;;;;1.67;1.00;;;13.10;82.80;;;;;;4953274;29;20031;-78
2024/03/26 11:06:07;;;;;;;2.40;1.20;;;13.10;82.80;;;;;;4953301;29;20027;-76
2024/03/26 11:08:39;;;;;;;2.47;1.40;;;13.00;82.80;;;;;;4953380;28;20545;-78
2024/03/26 11:11:06;;;;;;;2.30;1.30;;;13.00;82.80;;;;;;4953836;28;20035;-78
2024/03/26 11:13:37;;;;;;;2.10;1.30;;;13.00;82.80;;;;;;4954404;28;20038;-78
2024/03/26 11:16:05;;;;;;;2.30;1.27;;;13.00;82.80;;;;;;4953200;29;20035;-78
2024/03/26 11:18:35;;;;;;;2.72;1.35;;;13.00;82.80;;;;;;4954141;28;20259;-77
2024/03/26 11:21:04;;;;;;;3.03;1.40;;;13.00;82.90;;;;;;4953699;28;20035;-78
2024/03/26 11:23:34;;;;;;;2.58;1.30;;;13.00;83.00;;;;;;4952909;28;20054;-78
2024/03/26 11:26:00;;;;;;;3.13;1.40;;;13.00;82.90;;;;;;4953238;29;20071;-77
2024/03/26 11:28:27;;;;;;;2.42;1.25;;;13.00;83.00;;;;;;4954024;29;20470;-78
2024/03/26 11:30:53;;;;;;;3.72;1.40;;;13.00;83.00;;;;;;4953854;28;20078;-78
2024/03/26 11:33:24;;;;;;;2.55;1.27;;;13.10;83.10;;;;;;4954103;28;20407;-77
2024/03/26 11:35:50;;;;;;;2.25;1.33;;;13.00;83.00;;;;;;4952674;28;20110;-78
2024/03/26 11:38:16;;;;;;;1.48;1.10;;;13.00;83.00;;;;;;4952718;29;20035;-77
2024/03/26 11:40:43;;;;;;;2.67;1.40;;;13.00;83.10;;;;;;4952678;28;20074;-78
2024/03/26 11:43:09;;;;;;;2.60;1.33;;;13.00;83.10;;;;;;4952963;28;20031;-78
2024/03/26 11:45:34;;;;;;;2.35;1.20;;;12.90;83.10;;;;;;4953729;28;20090;-78
2024/03/26 11:48:00;;;;;;;2.10;1.10;;;13.00;83.10;;;;;;4953924;28;20035;-77
2024/03/26 11:50:25;;;;;;;1.38;1.17;;;12.90;83.10;;;;;;4952282;29;20059;-77
2024/03/26 11:52:51;;;;;;;2.75;1.33;;;13.00;83.00;;;;;;4954289;29;20028;-77
2024/03/26 11:55:16;;;;;;;2.15;1.13;;;13.00;82.90;;;;;;4953800;29;20031;-77
2024/03/26 11:57:42;;;;;;;2.95;1.50;;;13.00;82.90;;;;;;4953843;28;20074;-78
2024/03/26 12:00:09;;;;;;;2.72;1.45;;;13.10;82.70;;;;;;4952366;28;20059;-77
2024/03/26 12:02:39;;;;;;;2.13;1.20;;;13.00;82.60;;;;;;4953831;28;20057;-78
2024/03/26 12:05:05;;;;;;;2.17;1.35;;;13.00;82.70;;;;;;4952462;29;20023;-78
2024/03/26 12:07:33;;;;;;;2.03;1.30;;;13.00;82.70;;;;;;4953553;29;20027;-77
2024/03/26 12:09:58;;;;;;;1.65;1.20;;;13.10;82.70;;;;;;4952260;29;20031;-78
2024/03/26 12:12:26;;;;;;;1.98;1.30;;;13.10;82.60;;;;;;4953884;28;20390;-79
2024/03/26 12:14:52;;;;;;;2.65;1.50;;;13.10;82.60;;;;;;4953647;28;20028;-77
2024/03/26 12:17:18;;;;;;;3.03;1.40;;;13.20;82.50;;;;;;4953754;29;20034;-77
2024/03/26 12:19:44;;;;;;;2.88;1.33;;;13.10;82.40;;;;;;4954177;28;20034;-77
2024/03/26 12:22:19;;;;;;;1.98;1.20;;;13.20;82.40;;;;;;4955517;28;20031;-77
2024/03/26 12:24:46;;;;;;;2.42;1.30;;;13.20;82.50;;;;;;4955818;28;20066;-77
2024/03/26 12:27:12;;;;;;;2.38;1.35;;;13.20;82.50;;;;;;4955658;28;20484;-76
2024/03/26 12:29:38;;;;;;;1.98;1.23;;;13.20;82.50;;;;;;4955418;28;20027;-77
2024/03/26 12:32:05;;;;;;;2.70;1.30;;;13.10;82.50;;;;;;4956652;29;20031;-77
2024/03/26 12:34:35;;;;;;;2.45;1.30;;;13.10;82.50;;;;;;4956568;28;20034;-77
2024/03/26 12:37:02;;;;;;;2.28;1.48;;;13.10;82.60;;;;;;4968576;28;20086;-78
2024/03/26 12:39:29;;;;;;;2.08;1.30;;;13.10;82.60;;;;;;4971246;28;20038;-77
2024/03/26 12:41:55;;;;;;;2.08;1.30;;;13.00;82.50;;;;;;4971361;28;20034;-78
2024/03/26 12:44:21;;;;;;;2.15;1.20;;;13.10;82.50;;;;;;4956820;28;20027;-78